This is the latest recevied weather packets stored in our database for station/object W7TRD. If no packets are shown the sender has not sent any weather packets the latest 10 day(s).
| Time | Temp. | Humidity | Pressure | Rain* | Wind** | Luminosity | Snow |
|---|---|---|---|---|---|---|---|
| 1777668892 | 22.78° C | 49% | 1016.6 hPa | 0 mm | - | 677 W/m² | - |
| 1777660701 | 20° C | 59% | 1017.7 hPa | 0 mm | - | 533 W/m² | - |
| 1777660095 | 19.44° C | 60% | 1017.7 hPa | 0 mm | - | 653 W/m² | - |
| 1777659489 | 18.89° C | 61% | 1017.9 hPa | 0 mm | - | 677 W/m² | - |
| 1777659186 | 18.33° C | 62% | 1017.7 hPa | 0 mm | - | 622 W/m² | - |
| 1777658883 | 18.89° C | 62% | 1017.9 hPa | 0 mm | - | 593 W/m² | - |
| 1777658579 | 18.89° C | 62% | 1017.8 hPa | 0 mm | - | 453 W/m² | - |
| 1777657064 | 18.33° C | 63% | 1017.9 hPa | 0 mm | - | 553 W/m² | - |
| 1777656761 | 17.78° C | 62% | 1018 hPa | 0 mm | - | 526 W/m² | - |
| 1777656457 | 17.78° C | 63% | 1017.8 hPa | 0 mm | - | 543 W/m² | - |
| 1777656153 | 17.78° C | 65% | 1018 hPa | 0 mm | - | 527 W/m² | - |
| 1777655848 | 17.22° C | 66% | 1017.8 hPa | 0 mm | - | 491 W/m² | - |
| 1777655546 | 17.22° C | 66% | 1018 hPa | 0 mm | - | 423 W/m² | - |
| 1777655243 | 16.67° C | 67% | 1017.8 hPa | 0 mm | - | 351 W/m² | - |
| 1777654939 | 16.67° C | 69% | 1018 hPa | 0 mm | - | 390 W/m² | - |
| 1777654637 | 16.11° C | 70% | 1018.1 hPa | 0 mm | - | 339 W/m² | - |
| 1777654032 | 15.56° C | 71% | 1018.1 hPa | 0 mm | - | 301 W/m² | - |
| 1777653729 | 15.56° C | 73% | 1018 hPa | 0 mm | - | 255 W/m² | - |
| 1777653425 | 16.11° C | 71% | 1018.1 hPa | 0 mm | - | 273 W/m² | - |
| 1777653122 | 15.56° C | 71% | 1018.1 hPa | 0 mm | - | 265 W/m² | - |
| 1777652818 | 15.56° C | 73% | 1018.1 hPa | 0 mm | - | 260 W/m² | - |
| 1777652514 | 15.56° C | 72% | 1018.1 hPa | 0 mm | - | 285 W/m² | - |
| 1777652212 | 15.56° C | 72% | 1018.3 hPa | 0 mm | - | 345 W/m² | - |
| 1777651909 | 16.11° C | 71% | 1018.2 hPa | 0 mm | - | 354 W/m² | - |
| 1777651605 | 16.11° C | 70% | 1018.5 hPa | 0 mm | - | 337 W/m² | - |
* Rain latest hour (hover to see other rain measurements)
** Current wind speed in m/s (hover to see current wind gust speed)